createdAt,value
2022-08-11T00:00:16.075Z,101050.47
2022-08-11T00:02:50.505Z,100996.94
2022-08-11T00:05:22.011Z,100957.81
2022-08-11T00:07:52.810Z,100973.59
2022-08-11T00:10:26.756Z,100885.38
2022-08-11T00:12:58.101Z,100904.72
2022-08-11T00:15:40.765Z,100907.91
2022-08-11T00:18:12.876Z,100895.53
2022-08-11T00:20:45.311Z,100904.53
2022-08-11T00:23:19.837Z,100872.09
2022-08-11T00:25:50.789Z,100883.47
2022-08-11T00:28:28.920Z,100893.56
2022-08-11T00:31:00.888Z,100913.31
2022-08-11T00:33:42.566Z,100893.84
2022-08-11T00:36:20.838Z,100896.06
2022-08-11T00:38:54.214Z,100906.53
2022-08-11T00:41:32.479Z,100906.53
2022-08-11T00:44:14.240Z,100896.94
2022-08-11T00:47:03.064Z,100938.22
2022-08-11T00:49:45.779Z,100926.34
2022-08-11T00:52:30.842Z,100928.34
2022-08-11T00:55:36.925Z,100915.91
2022-08-11T00:58:52.911Z,100928.66
2022-08-11T01:01:35.665Z,100886.38
2022-08-11T01:04:55.557Z,100835.00
2022-08-11T01:08:02.367Z,100882.09
2022-08-11T01:10:46.857Z,100874.88
2022-08-11T01:13:21.183Z,100827.16
2022-08-11T01:16:05.997Z,100887.03
2022-08-11T01:19:22.016Z,100894.09
2022-08-11T01:22:31.406Z,100878.06
2022-08-11T01:25:57.653Z,100878.31
2022-08-11T01:29:03.038Z,100880.59
2022-08-11T01:32:09.642Z,100881.41
2022-08-11T01:35:21.709Z,100867.53
2022-08-11T01:38:25.381Z,100874.22
2022-08-11T01:42:02.926Z,100872.63
2022-08-11T01:44:52.622Z,100788.00
2022-08-11T01:47:53.359Z,100815.75
2022-08-11T01:50:41.851Z,100754.78
2022-08-11T01:53:19.142Z,100738.88
2022-08-11T01:55:58.415Z,100650.66
2022-08-11T01:58:44.041Z,100709.34
2022-08-11T02:01:41.082Z,100666.22
2022-08-11T02:04:19.694Z,100672.59
2022-08-11T02:06:56.846Z,100709.06
2022-08-11T02:09:49.733Z,100722.50
2022-08-11T02:12:36.031Z,100694.69
2022-08-11T02:15:15.154Z,100693.41
2022-08-11T02:17:55.115Z,100747.09
2022-08-11T02:20:44.907Z,100706.84
2022-08-11T02:24:06.625Z,100668.22
2022-08-11T02:26:36.897Z,100672.00
2022-08-11T02:29:14.970Z,100717.59
2022-08-11T02:32:25.047Z,100720.59
2022-08-11T02:35:04.819Z,100703.00
2022-08-11T02:37:45.447Z,100667.13
2022-08-11T02:40:26.212Z,100655.47
2022-08-11T02:43:08.253Z,100723.75
2022-08-11T02:45:47.436Z,100709.53
2022-08-11T02:48:48.333Z,100728.75
2022-08-11T02:51:25.872Z,100699.69
2022-08-11T02:54:04.349Z,100704.22
2022-08-11T02:56:44.621Z,100746.06
2022-08-11T02:59:53.611Z,100745.16
2022-08-11T03:02:50.298Z,100778.81
2022-08-11T03:05:32.883Z,100785.72
2022-08-11T03:08:19.192Z,100781.34
2022-08-11T03:11:14.493Z,100761.28
2022-08-11T03:14:09.061Z,100801.16
2022-08-11T03:16:48.463Z,100746.97
2022-08-11T03:19:27.656Z,100746.22
2022-08-11T03:22:06.612Z,100788.56
2022-08-11T03:24:54.032Z,100784.31
2022-08-11T03:27:33.754Z,100756.56
2022-08-11T03:30:14.856Z,100774.09
2022-08-11T03:33:37.820Z,100834.66
2022-08-11T03:36:17.412Z,100843.28
2022-08-11T03:39:01.008Z,100847.25
2022-08-11T03:42:02.490Z,100832.28
2022-08-11T03:44:57.632Z,100811.50
2022-08-11T03:47:41.607Z,100845.28
2022-08-11T03:50:33.837Z,100782.44
2022-08-11T03:53:16.452Z,100795.72
2022-08-11T03:56:14.043Z,100878.63
2022-08-11T03:59:13.132Z,100903.25
2022-08-11T04:02:12.713Z,100834.16
2022-08-11T04:05:21.232Z,100863.25
2022-08-11T04:08:27.074Z,100900.84
2022-08-11T04:11:33.219Z,100936.91
2022-08-11T04:15:09.956Z,100958.75
2022-08-11T04:18:06.601Z,100991.28
2022-08-11T04:21:09.355Z,100975.75
2022-08-11T04:24:38.747Z,100992.19
2022-08-11T04:27:39.234Z,101000.22
2022-08-11T04:30:14.881Z,101014.50
2022-08-11T04:33:18.179Z,100966.97
2022-08-11T04:35:56.359Z,101031.06
2022-08-11T04:38:54.383Z,101060.06
2022-08-11T04:42:00.619Z,101061.22
2022-08-11T04:45:10.177Z,101104.84
2022-08-11T04:48:10.702Z,101145.19
2022-08-11T04:51:25.618Z,101180.28
2022-08-11T04:54:27.828Z,101234.28
2022-08-11T04:57:22.021Z,101264.63
2022-08-11T05:00:24.058Z,101311.38
2022-08-11T05:03:14.549Z,101385.13
2022-08-11T05:06:11.876Z,101395.06
2022-08-11T05:09:14.860Z,101387.13
2022-08-11T05:12:11.880Z,101431.06
2022-08-11T05:15:05.772Z,101431.06
2022-08-11T05:17:58.396Z,101499.16
2022-08-11T05:20:45.391Z,101607.03
2022-08-11T05:23:33.553Z,101631.59
2022-08-11T05:26:46.249Z,101697.06
2022-08-11T05:29:55.268Z,101757.00
2022-08-11T05:32:45.349Z,101811.59
2022-08-11T05:36:00.396Z,101706.09
2022-08-11T05:38:44.521Z,101784.63
2022-08-11T05:41:33.517Z,101877.00
2022-08-11T05:44:23.533Z,101861.25
2022-08-11T05:47:14.199Z,101914.16
2022-08-11T05:50:00.056Z,101989.56
2022-08-11T05:52:56.729Z,102071.03
2022-08-11T05:56:02.457Z,102229.31
2022-08-11T05:58:42.393Z,102294.28
2022-08-11T06:01:13.722Z,102278.66
2022-08-11T06:04:09.035Z,102322.06
2022-08-11T06:06:45.539Z,102444.22
2022-08-11T06:09:16.197Z,102522.09
2022-08-11T06:11:45.216Z,102400.75
2022-08-11T06:14:19.185Z,102440.66
2022-08-11T06:16:54.170Z,102501.94
2022-08-11T06:19:32.142Z,102473.53
2022-08-11T06:22:02.374Z,102570.88
2022-08-11T06:24:41.643Z,102591.19
2022-08-11T06:27:13.451Z,102649.47
2022-08-11T06:29:54.996Z,102624.66
2022-08-11T06:32:35.160Z,102588.53
2022-08-11T06:35:14.441Z,102613.06
2022-08-11T06:37:49.260Z,102564.88
2022-08-11T06:40:32.514Z,102435.03
2022-08-11T06:43:08.675Z,102458.09
2022-08-11T06:45:49.605Z,102406.81
2022-08-11T06:48:22.515Z,102469.84
2022-08-11T06:51:14.615Z,102551.13
2022-08-11T06:53:56.370Z,102635.78
2022-08-11T06:57:12.482Z,102639.34
2022-08-11T07:00:01.612Z,102644.94
2022-08-11T07:02:35.099Z,102660.31
2022-08-11T07:05:10.162Z,102746.63
2022-08-11T07:08:34.668Z,102756.84
2022-08-11T07:11:38.225Z,102825.69
2022-08-11T07:14:25.933Z,102889.78
2022-08-11T07:16:55.903Z,102854.88
2022-08-11T07:19:48.383Z,102877.84
2022-08-11T07:22:33.800Z,102925.13
2022-08-11T07:25:29.461Z,102896.97
2022-08-11T07:28:19.017Z,102925.47
2022-08-11T07:30:54.078Z,102978.94
2022-08-11T07:34:06.845Z,103013.69
2022-08-11T07:36:28.191Z,103109.47
2022-08-11T07:38:58.922Z,103292.41
2022-08-11T07:41:31.396Z,103305.22
2022-08-11T07:44:09.302Z,103367.56
2022-08-11T07:46:58.634Z,103384.47
2022-08-11T07:49:46.860Z,103439.97
2022-08-11T07:52:29.997Z,103487.25
2022-08-11T07:55:00.685Z,103584.16
2022-08-11T07:58:13.920Z,103635.28
2022-08-11T08:01:01.795Z,103748.69
2022-08-11T08:03:54.332Z,103703.78
2022-08-11T08:06:41.319Z,103743.59
2022-08-11T08:09:29.651Z,103668.72
2022-08-11T08:12:18.445Z,103638.91
2022-08-11T08:15:04.021Z,103757.94
2022-08-11T08:18:20.556Z,103843.47
2022-08-11T08:20:43.859Z,103900.41
2022-08-11T08:23:12.835Z,103974.84
2022-08-11T08:25:44.973Z,103991.88
2022-08-11T08:28:16.422Z,103958.38
2022-08-11T08:30:48.638Z,103945.41
2022-08-11T08:33:20.918Z,104011.78
2022-08-11T08:39:50.275Z,104240.78
2022-08-11T08:42:33.399Z,104389.47
2022-08-11T08:45:08.097Z,104473.50
2022-08-11T08:47:43.144Z,104560.16
2022-08-11T08:50:16.881Z,104606.59
2022-08-11T08:52:57.542Z,104625.78
2022-08-11T08:55:33.050Z,104714.13
2022-08-11T08:58:06.393Z,104925.59
2022-08-11T09:00:41.691Z,105155.28
2022-08-11T09:03:39.064Z,105174.06
2022-08-11T09:05:59.535Z,105376.91
2022-08-11T09:08:29.639Z,105509.22
2022-08-11T09:11:16.583Z,105703.56
2022-08-11T09:14:04.874Z,105840.13
2022-08-11T09:16:36.415Z,105810.13
2022-08-11T09:19:05.424Z,105741.00
2022-08-11T09:21:48.562Z,105856.72
2022-08-11T09:24:37.243Z,105900.75
2022-08-11T09:27:08.305Z,106151.19
2022-08-11T09:29:40.030Z,106500.28
2022-08-11T09:32:09.041Z,106901.75
2022-08-11T09:34:40.130Z,107072.84
2022-08-11T09:37:54.081Z,107424.97
2022-08-11T09:40:33.889Z,108059.19
2022-08-11T09:43:23.794Z,108390.88
2022-08-11T09:45:58.912Z,108709.66
2022-08-11T09:48:32.117Z,108790.88
2022-08-11T09:51:02.910Z,108842.03
2022-08-11T09:53:47.097Z,108865.97
2022-08-11T09:57:03.269Z,109230.94
2022-08-11T09:59:35.952Z,109719.50
2022-08-11T10:02:08.779Z,109753.66
2022-08-11T10:04:41.527Z,109535.97
2022-08-11T10:07:11.062Z,109485.81
2022-08-11T10:09:43.424Z,109671.91
2022-08-11T10:12:15.935Z,109623.84
2022-08-11T10:15:07.196Z,110203.84
2022-08-11T10:17:59.982Z,110102.00
2022-08-11T10:20:31.194Z,110103.88
2022-08-11T10:24:00.814Z,110160.69
2022-08-11T10:26:44.276Z,110408.69
2022-08-11T10:32:58.136Z,110459.13
2022-08-11T10:35:31.766Z,110062.09
2022-08-11T10:38:08.558Z,110038.19
2022-08-11T10:40:40.809Z,110187.91
2022-08-11T10:43:14.562Z,110432.75
2022-08-11T10:47:02.707Z,110891.47
2022-08-11T10:53:09.830Z,111168.50
2022-08-11T10:55:58.780Z,110556.72
2022-08-11T10:58:45.339Z,110610.41
2022-08-11T11:01:16.181Z,110479.28
2022-08-11T11:03:45.719Z,110551.91
2022-08-11T11:06:47.302Z,110423.94
2022-08-11T11:13:29.201Z,110028.31
2022-08-11T11:16:15.081Z,109964.88
2022-08-11T11:19:00.526Z,109743.38
2022-08-11T11:21:29.944Z,109909.56
2022-08-11T11:24:12.303Z,110449.19
2022-08-11T11:26:53.225Z,110665.69
2022-08-11T11:29:47.967Z,110697.91
2022-08-11T11:32:26.127Z,110485.09
2022-08-11T11:35:12.611Z,110724.38
2022-08-11T11:38:03.473Z,110826.00
2022-08-11T11:40:32.229Z,111252.47
2022-08-11T11:43:03.092Z,111025.34
2022-08-11T11:45:34.459Z,110825.09
2022-08-11T11:48:03.749Z,110452.69
2022-08-11T11:50:35.729Z,110386.59
2022-08-11T11:53:07.007Z,110126.25
2022-08-11T11:55:36.292Z,109576.50
2022-08-11T11:58:25.035Z,109453.53
2022-08-11T12:01:15.629Z,109078.56
2022-08-11T12:03:46.859Z,108335.38
2022-08-11T12:06:15.750Z,108099.81
2022-08-11T12:08:45.063Z,107836.16
2022-08-11T12:11:32.680Z,107647.03
2022-08-11T12:14:10.617Z,107411.63
2022-08-11T12:16:42.221Z,107250.97
2022-08-11T12:19:13.050Z,107128.50
2022-08-11T12:22:04.100Z,107003.75
2022-08-11T12:24:54.301Z,106802.88
2022-08-11T12:27:40.895Z,106651.16
2022-08-11T12:30:11.949Z,106491.31
2022-08-11T12:32:43.815Z,106521.56
2022-08-11T12:35:15.635Z,106443.22
2022-08-11T12:37:46.845Z,106432.09
2022-08-11T12:41:11.695Z,106476.44
2022-08-11T12:43:56.385Z,106399.53
2022-08-11T12:46:32.540Z,106349.34
2022-08-11T12:49:25.967Z,106367.84
2022-08-11T12:52:13.965Z,106258.91
2022-08-11T12:54:51.952Z,106131.66
2022-08-11T12:57:44.348Z,106092.47
2022-08-11T13:00:30.590Z,106099.66
2022-08-11T13:03:19.350Z,105956.97
2022-08-11T13:05:52.549Z,105984.44
2022-08-11T13:08:23.469Z,105945.22
2022-08-11T13:11:10.223Z,106080.41
2022-08-11T13:13:55.836Z,106376.22
2022-08-11T13:16:29.617Z,106353.25
2022-08-11T13:19:01.379Z,106250.09
2022-08-11T13:21:31.554Z,106191.16
2022-08-11T13:24:03.684Z,106127.47
2022-08-11T13:26:48.201Z,106232.50
2022-08-11T13:29:26.535Z,106150.44
2022-08-11T13:32:00.060Z,106139.22
2022-08-11T13:34:32.453Z,106188.16
2022-08-11T13:37:05.472Z,106309.88
2022-08-11T13:39:37.827Z,106410.59
2022-08-11T13:42:07.322Z,106834.19
2022-08-11T13:44:39.004Z,107187.03
2022-08-11T13:47:10.249Z,107440.44
2022-08-11T13:49:42.240Z,107470.03
2022-08-11T13:52:15.086Z,107471.56
2022-08-11T13:54:48.102Z,107567.81
2022-08-11T13:58:08.080Z,107643.56
2022-08-11T14:00:14.538Z,107850.66
2022-08-11T14:02:55.325Z,107916.50
2022-08-11T14:05:31.659Z,108112.78
2022-08-11T14:08:07.139Z,108480.44
2022-08-11T14:10:39.465Z,108802.78
2022-08-11T14:13:28.019Z,108918.78
2022-08-11T14:16:02.289Z,108434.44
2022-08-11T14:18:33.121Z,108254.16
2022-08-11T14:21:28.054Z,108438.03
2022-08-11T14:24:09.822Z,108622.13
2022-08-11T14:26:39.831Z,108335.91
2022-08-11T14:29:14.159Z,108022.91
2022-08-11T14:31:47.943Z,108390.88
2022-08-11T14:34:18.825Z,108924.13
2022-08-11T14:36:53.207Z,109326.75
2022-08-11T14:39:26.623Z,109317.78
2022-08-11T14:42:15.459Z,109806.84
2022-08-11T14:45:18.292Z,109775.38
2022-08-11T14:47:54.673Z,109512.59
2022-08-11T14:50:25.621Z,109523.72
2022-08-11T14:53:00.734Z,109639.34
2022-08-11T14:55:48.739Z,109644.44
2022-08-11T14:58:20.285Z,109427.81
2022-08-11T15:01:29.812Z,109130.78
2022-08-11T15:04:36.326Z,109068.88
2022-08-11T15:07:16.260Z,109119.00
2022-08-11T15:10:11.584Z,109464.63
2022-08-11T15:12:38.401Z,109668.66
2022-08-11T15:15:30.092Z,109928.94
2022-08-11T15:18:04.338Z,110180.38
2022-08-11T15:20:53.692Z,110023.38
2022-08-11T15:23:57.270Z,109828.59
2022-08-11T15:26:52.201Z,109577.88
2022-08-11T15:29:40.827Z,109079.63
2022-08-11T15:32:29.485Z,108709.75
2022-08-11T15:35:18.905Z,108502.91
2022-08-11T15:37:52.713Z,107998.84
2022-08-11T15:40:43.674Z,108333.09
2022-08-11T15:43:48.265Z,108457.13
2022-08-11T15:46:21.585Z,108025.72
2022-08-11T15:48:57.347Z,107947.97
2022-08-11T15:51:36.180Z,108193.84
2022-08-11T15:54:09.662Z,107809.47
2022-08-11T15:56:41.603Z,107700.78
2022-08-11T15:59:41.916Z,107324.38
2022-08-11T16:02:32.270Z,107358.75
2022-08-11T16:05:05.532Z,107408.78
2022-08-11T16:07:40.499Z,107459.56
2022-08-11T16:10:17.992Z,107582.47
2022-08-11T16:13:15.567Z,107562.41
2022-08-11T16:16:10.036Z,107689.75
2022-08-11T16:18:51.684Z,107534.91
2022-08-11T16:21:26.159Z,107444.88
2022-08-11T16:24:07.227Z,107077.78
2022-08-11T16:27:08.256Z,106594.59
2022-08-11T16:29:31.959Z,106183.03
2022-08-11T16:32:19.244Z,105856.66
2022-08-11T16:35:08.893Z,105388.50
2022-08-11T16:37:55.964Z,105135.22
2022-08-11T16:40:25.597Z,104793.38
2022-08-11T16:43:13.501Z,104611.97
2022-08-11T16:46:15.858Z,104490.00
2022-08-11T16:48:56.959Z,104362.19
2022-08-11T16:51:25.709Z,104314.50
2022-08-11T16:54:03.999Z,104288.88
2022-08-11T16:56:38.820Z,104181.50
2022-08-11T16:59:16.913Z,104115.28
2022-08-11T17:01:52.134Z,104063.16
2022-08-11T17:04:48.720Z,103997.75
2022-08-11T17:07:43.013Z,103956.06
2022-08-11T17:10:50.518Z,103926.03
2022-08-11T17:13:35.329Z,103890.66
2022-08-11T17:16:08.580Z,103829.38
2022-08-11T17:18:44.375Z,103800.63
2022-08-11T17:21:18.630Z,103715.88
2022-08-11T17:23:50.616Z,103724.94
2022-08-11T17:26:26.396Z,103601.75
2022-08-11T17:28:59.115Z,103561.00
2022-08-11T17:31:47.692Z,103561.00
2022-08-11T17:34:34.700Z,103502.97
2022-08-11T17:37:05.724Z,103382.38
2022-08-11T17:39:35.842Z,103289.25
2022-08-11T17:42:22.718Z,103303.78
2022-08-11T17:45:10.079Z,103192.47
2022-08-11T17:47:57.681Z,103124.25
2022-08-11T17:50:28.813Z,103137.72
2022-08-11T17:53:19.271Z,103079.41
2022-08-11T17:56:09.600Z,103168.41
2022-08-11T17:58:58.333Z,103098.19
2022-08-11T18:01:35.581Z,103058.38
2022-08-11T18:04:06.845Z,103053.06
2022-08-11T18:06:40.507Z,103006.34
2022-08-11T18:09:30.676Z,103053.22
2022-08-11T18:12:17.975Z,102977.72
2022-08-11T18:15:06.528Z,102960.97
2022-08-11T18:17:53.030Z,102913.44
2022-08-11T18:20:39.592Z,102828.13
2022-08-11T18:23:41.973Z,102752.63
2022-08-11T18:26:38.369Z,102683.41
2022-08-11T18:29:26.795Z,102685.41
2022-08-11T18:32:20.747Z,102658.81
2022-08-11T18:35:11.216Z,102625.53
2022-08-11T18:38:04.351Z,102523.19
2022-08-11T18:40:51.044Z,102456.25
2022-08-11T18:43:41.342Z,102423.94
2022-08-11T18:46:30.351Z,102392.31
2022-08-11T18:49:20.132Z,102393.72
2022-08-11T18:52:11.335Z,102412.25
2022-08-11T18:55:00.705Z,102384.13
2022-08-11T18:57:54.153Z,102348.03
2022-08-11T19:00:43.029Z,102230.94
2022-08-11T19:03:31.194Z,102180.28
2022-08-11T19:06:39.347Z,102180.81
2022-08-11T19:09:28.978Z,102150.91
2022-08-11T19:12:17.043Z,102126.41
2022-08-11T19:15:04.250Z,102072.88
2022-08-11T19:17:55.194Z,102061.13
2022-08-11T19:20:44.987Z,102076.06
2022-08-11T19:23:33.985Z,102032.41
2022-08-11T19:26:21.390Z,101996.16
2022-08-11T19:29:08.334Z,101919.31
2022-08-11T19:31:56.099Z,101939.81
2022-08-11T19:34:45.164Z,101895.50
2022-08-11T19:37:31.889Z,101862.34
2022-08-11T19:40:23.269Z,101841.97
2022-08-11T19:43:18.618Z,101886.81
2022-08-11T19:46:12.227Z,101824.25
2022-08-11T19:49:00.603Z,101830.47
2022-08-11T19:51:54.244Z,101797.66
2022-08-11T19:54:44.429Z,101823.09
2022-08-11T19:57:37.148Z,101817.53
2022-08-11T20:00:29.909Z,101820.94
2022-08-11T20:03:17.061Z,101794.38
2022-08-11T20:06:05.303Z,101699.94
2022-08-11T20:08:58.392Z,101750.97
2022-08-11T20:11:53.795Z,101708.78
2022-08-11T20:14:45.485Z,101673.75
2022-08-11T20:17:46.399Z,101661.59
2022-08-11T20:20:52.428Z,101594.09
2022-08-11T20:24:05.332Z,101559.00
2022-08-11T20:27:19.005Z,101600.34
2022-08-11T20:31:00.443Z,101588.50
2022-08-11T20:33:53.363Z,101586.78
2022-08-11T20:36:41.965Z,101522.31
2022-08-11T20:39:30.108Z,101459.28
2022-08-11T20:42:17.037Z,101386.66
2022-08-11T20:45:07.162Z,101350.53
2022-08-11T20:47:59.536Z,101319.59
2022-08-11T20:50:48.507Z,101213.66
2022-08-11T20:53:39.288Z,101258.56
2022-08-11T20:56:32.057Z,101296.84
2022-08-11T20:59:23.214Z,101298.47
2022-08-11T21:02:11.094Z,101310.88
2022-08-11T21:05:15.804Z,101272.91
2022-08-11T21:08:09.916Z,101262.59
2022-08-11T21:11:01.230Z,101283.94
2022-08-11T21:13:55.961Z,101324.06
2022-08-11T21:16:48.892Z,101320.81
2022-08-11T21:19:55.054Z,101367.22
2022-08-11T21:23:05.992Z,101353.34
2022-08-11T21:25:59.074Z,101326.91
2022-08-11T21:28:47.052Z,101337.56
2022-08-11T21:31:34.773Z,101268.28
2022-08-11T21:34:21.705Z,101278.47
2022-08-11T21:37:09.166Z,101289.19
2022-08-11T21:39:57.180Z,101283.25
2022-08-11T21:42:44.075Z,101262.88
2022-08-11T21:45:34.019Z,101310.97
2022-08-11T21:48:22.718Z,101308.88
2022-08-11T21:51:08.616Z,101344.81
2022-08-11T21:53:54.509Z,101328.94
2022-08-11T21:56:41.938Z,101299.16
2022-08-11T21:59:29.212Z,101291.66
2022-08-11T22:02:16.111Z,101254.94
2022-08-11T22:05:04.419Z,101223.78
2022-08-11T22:07:50.777Z,101195.47
2022-08-11T22:10:40.675Z,101225.00
2022-08-11T22:13:30.166Z,101166.78
2022-08-11T22:16:17.014Z,101151.59
2022-08-11T22:19:03.972Z,101160.25
2022-08-11T22:22:02.536Z,101104.16
2022-08-11T22:24:51.991Z,101100.41
2022-08-11T22:27:39.101Z,101062.69
2022-08-11T22:30:26.601Z,101081.97
2022-08-11T22:33:13.840Z,101032.19
2022-08-11T22:36:03.385Z,101035.66
2022-08-11T22:38:53.509Z,101019.00
2022-08-11T22:41:40.061Z,101010.28
2022-08-11T22:44:25.901Z,100956.25
2022-08-11T22:47:14.377Z,100900.69
2022-08-11T22:50:07.724Z,100817.84
2022-08-11T22:52:55.234Z,100803.97
2022-08-11T22:55:44.593Z,100752.03
2022-08-11T22:58:33.268Z,100702.16
2022-08-11T23:01:19.802Z,100713.16
2022-08-11T23:04:06.246Z,100651.28
2022-08-11T23:06:53.497Z,100575.91
2022-08-11T23:09:39.575Z,100556.06
2022-08-11T23:12:27.161Z,100466.25
2022-08-11T23:15:13.747Z,100410.22
2022-08-11T23:18:00.144Z,100321.13
2022-08-11T23:20:52.198Z,100273.00
2022-08-11T23:23:40.732Z,100199.19
2022-08-11T23:26:28.563Z,100138.81
2022-08-11T23:29:18.541Z,100089.91
2022-08-11T23:32:05.245Z,100027.66
2022-08-11T23:35:04.252Z,100016.28
2022-08-11T23:38:04.361Z,99942.03
2022-08-11T23:40:49.546Z,99936.50
2022-08-11T23:43:38.488Z,99894.03
2022-08-11T23:46:25.484Z,99857.81
2022-08-11T23:49:15.156Z,99841.03
2022-08-11T23:52:01.649Z,99811.47
2022-08-11T23:54:47.999Z,99799.72
2022-08-11T23:57:34.695Z,99751.72
